createdAt,value
2019-03-01T00:01:01.196Z,71.22
2019-03-01T00:03:35.453Z,71.29
2019-03-01T00:06:13.103Z,71.41
2019-03-01T00:08:53.077Z,71.48
2019-03-01T00:11:28.672Z,71.34
2019-03-01T00:14:05.703Z,71.26
2019-03-01T00:17:02.593Z,71.31
2019-03-01T00:19:53.561Z,71.31
2019-03-01T00:22:33.667Z,71.42
2019-03-01T00:25:14.208Z,71.17
2019-03-01T00:27:54.159Z,71.23
2019-03-01T00:30:50.435Z,71.13
2019-03-01T00:33:27.535Z,71.00
2019-03-01T00:36:36.670Z,70.92
2019-03-01T00:39:28.822Z,70.61
2019-03-01T00:42:15.209Z,70.65
2019-03-01T00:44:48.191Z,70.33
2019-03-01T00:47:19.759Z,70.57
2019-03-01T00:49:50.932Z,70.36
2019-03-01T00:52:22.148Z,70.44
2019-03-01T00:54:53.542Z,70.37
2019-03-01T00:57:24.666Z,70.20
2019-03-01T00:59:55.753Z,70.16
2019-03-01T01:02:26.935Z,70.11
2019-03-01T01:04:58.000Z,70.10
2019-03-01T01:07:29.346Z,70.06
2019-03-01T01:10:02.052Z,69.98
2019-03-01T01:12:34.361Z,69.76
2019-03-01T01:15:07.069Z,69.61
2019-03-01T01:17:38.460Z,69.77
2019-03-01T01:20:10.228Z,69.34
2019-03-01T01:22:41.418Z,69.34
2019-03-01T01:25:12.509Z,69.11
2019-03-01T01:27:43.628Z,68.96
2019-03-01T01:30:15.004Z,68.94
2019-03-01T01:32:46.199Z,68.48
2019-03-01T01:35:17.372Z,67.70
2019-03-01T01:37:48.756Z,67.39
2019-03-01T01:40:19.853Z,66.30
2019-03-01T01:42:52.134Z,65.94
2019-03-01T01:45:23.371Z,65.45
2019-03-01T01:47:54.563Z,63.94
2019-03-01T01:50:25.776Z,64.21
2019-03-01T01:52:57.013Z,64.36
2019-03-01T01:55:28.167Z,64.53
2019-03-01T01:57:59.446Z,65.10
2019-03-01T02:00:30.686Z,65.24
2019-03-01T02:03:01.872Z,65.29
2019-03-01T02:05:33.076Z,65.54
2019-03-01T02:08:04.171Z,65.27
2019-03-01T02:10:35.291Z,65.33
2019-03-01T02:13:06.678Z,65.56
2019-03-01T02:15:37.823Z,65.51
2019-03-01T02:18:09.073Z,65.64
2019-03-01T02:20:40.182Z,65.50
2019-03-01T02:23:11.351Z,65.63
2019-03-01T02:25:42.483Z,65.72
2019-03-01T02:28:13.898Z,65.82
2019-03-01T02:30:48.276Z,65.87
2019-03-01T02:33:19.569Z,65.74
2019-03-01T02:35:50.727Z,65.98
2019-03-01T02:38:21.960Z,66.10
2019-03-01T02:40:54.075Z,66.40
2019-03-01T02:43:25.199Z,66.53
2019-03-01T02:45:56.426Z,66.82
2019-03-01T02:48:27.689Z,66.95
2019-03-01T02:50:58.842Z,67.09
2019-03-01T02:53:30.262Z,67.26
2019-03-01T02:56:01.462Z,67.61
2019-03-01T02:58:32.812Z,67.43
2019-03-01T03:01:03.979Z,67.36
2019-03-01T03:03:35.171Z,67.29
2019-03-01T03:06:10.655Z,67.18
2019-03-01T03:08:41.847Z,66.72
2019-03-01T03:11:13.046Z,66.34
2019-03-01T03:13:44.182Z,66.31
2019-03-01T03:16:15.385Z,66.38
2019-03-01T03:18:46.636Z,66.20
2019-03-01T03:21:18.120Z,65.99
2019-03-01T03:23:49.343Z,65.89
2019-03-01T03:26:20.524Z,65.65
2019-03-01T03:28:52.019Z,65.64
2019-03-01T03:31:23.371Z,65.42
2019-03-01T03:33:55.880Z,65.39
2019-03-01T03:36:27.099Z,65.62
2019-03-01T03:38:58.303Z,65.64
2019-03-01T03:41:29.452Z,65.72
2019-03-01T03:44:00.614Z,65.47
2019-03-01T03:46:31.911Z,65.53
2019-03-01T03:49:03.204Z,65.53
2019-03-01T03:51:34.289Z,66.15
2019-03-01T03:54:05.612Z,66.87
2019-03-01T03:56:36.953Z,67.43
2019-03-01T03:59:08.007Z,68.23
2019-03-01T04:01:39.019Z,68.74
2019-03-01T04:04:10.216Z,69.32
2019-03-01T04:06:41.544Z,69.77
2019-03-01T04:09:12.833Z,70.63
2019-03-01T04:11:44.123Z,71.65
2019-03-01T04:14:15.367Z,72.10
2019-03-01T04:16:46.575Z,72.02
2019-03-01T04:19:17.667Z,72.25
2019-03-01T04:21:48.934Z,72.74
2019-03-01T04:24:20.117Z,72.57
2019-03-01T04:26:51.242Z,72.59
2019-03-01T04:29:22.687Z,72.68
2019-03-01T04:31:53.988Z,72.45
2019-03-01T04:34:26.850Z,72.32
2019-03-01T04:36:58.399Z,72.31
2019-03-01T04:39:29.677Z,72.09
2019-03-01T04:42:02.720Z,71.93
2019-03-01T04:44:36.212Z,71.86
2019-03-01T04:47:07.556Z,71.56
2019-03-01T04:49:38.709Z,70.98
2019-03-01T04:52:28.666Z,70.83
2019-03-01T04:55:00.394Z,69.98
2019-03-01T04:57:31.777Z,69.91
2019-03-01T05:00:03.023Z,69.72
2019-03-01T05:02:34.268Z,69.55
2019-03-01T05:05:05.973Z,69.32
2019-03-01T05:07:41.299Z,69.17
2019-03-01T05:10:14.973Z,68.85
2019-03-01T05:12:46.223Z,68.90
2019-03-01T05:15:25.354Z,68.29
2019-03-01T05:17:56.936Z,67.95
2019-03-01T05:20:30.505Z,67.42
2019-03-01T05:23:02.821Z,67.57
2019-03-01T05:25:34.182Z,67.22
2019-03-01T05:28:05.288Z,66.96
2019-03-01T05:30:36.511Z,66.70
2019-03-01T05:33:07.812Z,66.49
2019-03-01T05:35:39.053Z,66.29
2019-03-01T05:38:10.423Z,66.19
2019-03-01T05:40:42.685Z,66.09
2019-03-01T05:43:14.553Z,65.79
2019-03-01T05:45:46.297Z,65.85
2019-03-01T05:48:18.081Z,65.38
2019-03-01T05:50:52.432Z,65.32
2019-03-01T05:53:37.285Z,64.65
2019-03-01T05:56:09.006Z,65.06
2019-03-01T05:58:46.631Z,64.24
2019-03-01T06:01:25.526Z,63.82
2019-03-01T06:04:10.047Z,63.60
2019-03-01T06:07:06.949Z,63.81
2019-03-01T06:10:02.902Z,64.36
2019-03-01T06:13:13.546Z,64.54
2019-03-01T06:15:49.683Z,64.41
2019-03-01T06:18:37.468Z,65.07
2019-03-01T06:21:19.109Z,64.52
2019-03-01T06:23:56.575Z,63.84
2019-03-01T06:26:37.695Z,63.92
2019-03-01T06:29:18.554Z,63.60
2019-03-01T06:32:19.835Z,63.83
2019-03-01T06:35:15.850Z,63.66
2019-03-01T06:38:00.268Z,63.65
2019-03-01T06:40:44.079Z,64.03
2019-03-01T06:43:35.254Z,64.30
2019-03-01T06:46:13.653Z,64.65
2019-03-01T06:48:46.486Z,64.59
2019-03-01T06:51:28.858Z,64.55
2019-03-01T06:53:55.547Z,64.60
2019-03-01T06:56:30.069Z,64.75
2019-03-01T06:59:04.726Z,65.23
2019-03-01T07:01:39.905Z,64.92
2019-03-01T07:04:14.684Z,64.87
2019-03-01T07:06:46.414Z,64.66
2019-03-01T07:09:18.432Z,63.83
2019-03-01T07:11:50.608Z,64.35
2019-03-01T07:14:26.143Z,63.84
2019-03-01T07:17:11.731Z,63.34
2019-03-01T07:19:45.488Z,62.66
2019-03-01T07:22:16.784Z,62.54
2019-03-01T07:28:00.469Z,61.99
2019-03-01T07:30:31.798Z,61.38
2019-03-01T07:33:04.939Z,61.72
2019-03-01T07:35:36.394Z,61.12
2019-03-01T07:38:08.704Z,61.36
2019-03-01T07:40:41.651Z,60.64
2019-03-01T07:43:13.051Z,60.82
2019-03-01T07:45:44.237Z,60.76
2019-03-01T07:48:15.534Z,60.60
2019-03-01T07:50:47.044Z,60.73
2019-03-01T07:53:21.358Z,59.99
2019-03-01T07:55:53.431Z,61.23
2019-03-01T08:01:29.947Z,60.42
2019-03-01T08:04:06.617Z,60.38
2019-03-01T08:06:38.138Z,60.26
2019-03-01T08:09:12.666Z,60.00
2019-03-01T08:11:45.603Z,60.01
2019-03-01T08:14:19.234Z,60.17
2019-03-01T08:16:56.980Z,59.92
2019-03-01T08:19:28.395Z,60.17
2019-03-01T08:21:59.850Z,59.57
2019-03-01T08:24:33.657Z,60.09
2019-03-01T08:27:09.947Z,59.85
2019-03-01T08:30:01.301Z,59.82
2019-03-01T08:32:34.797Z,59.47
2019-03-01T08:35:08.774Z,59.73
2019-03-01T08:37:40.220Z,60.11
2019-03-01T08:40:17.954Z,60.00
2019-03-01T08:42:50.327Z,59.93
2019-03-01T08:45:23.439Z,59.60
2019-03-01T08:47:55.421Z,58.80
2019-03-01T08:50:27.891Z,59.10
2019-03-01T08:53:00.047Z,58.50
2019-03-01T08:55:35.599Z,58.49
2019-03-01T08:58:08.984Z,58.65
2019-03-01T09:00:48.220Z,59.40
2019-03-01T09:03:26.233Z,59.42
2019-03-01T09:05:57.405Z,59.18
2019-03-01T09:08:28.506Z,58.22
2019-03-01T09:11:00.651Z,58.11
2019-03-01T09:13:36.015Z,57.80
2019-03-01T09:16:06.801Z,59.46
2019-03-01T09:18:52.909Z,59.49
2019-03-01T09:21:24.076Z,59.08
2019-03-01T09:23:59.412Z,59.19
2019-03-01T09:26:30.649Z,61.16
2019-03-01T09:29:01.870Z,61.81
2019-03-01T09:31:33.616Z,61.86
2019-03-01T09:34:06.211Z,61.02
2019-03-01T09:36:41.584Z,60.07
2019-03-01T09:39:14.449Z,59.12
2019-03-01T09:41:48.101Z,59.02
2019-03-01T09:44:22.075Z,59.63
2019-03-01T09:47:01.684Z,58.92
2019-03-01T09:49:35.976Z,58.29
2019-03-01T09:52:07.520Z,58.32
2019-03-01T09:54:40.882Z,58.16
2019-03-01T09:57:20.941Z,57.11
2019-03-01T09:59:57.203Z,56.85
2019-03-01T10:02:29.092Z,56.14
2019-03-01T10:05:06.059Z,55.62
2019-03-01T10:07:37.752Z,55.74
2019-03-01T10:10:12.328Z,56.33
2019-03-01T10:12:47.068Z,56.55
2019-03-01T10:15:22.945Z,56.14
2019-03-01T10:17:58.538Z,56.27
2019-03-01T10:20:30.487Z,56.51
2019-03-01T10:23:02.796Z,55.85
2019-03-01T10:25:36.891Z,55.65
2019-03-01T10:28:08.548Z,55.84
2019-03-01T10:30:39.836Z,55.60
2019-03-01T10:33:11.036Z,55.41
2019-03-01T10:35:42.381Z,55.88
2019-03-01T10:38:13.781Z,56.46
2019-03-01T10:40:45.017Z,57.41
2019-03-01T10:43:17.672Z,58.19
2019-03-01T10:45:50.637Z,58.63
2019-03-01T10:48:22.003Z,59.17
2019-03-01T10:50:53.148Z,59.24
2019-03-01T10:53:24.157Z,59.66
2019-03-01T10:55:55.546Z,60.03
2019-03-01T10:58:27.059Z,59.57
2019-03-01T11:00:58.396Z,60.22
2019-03-01T11:03:32.321Z,59.09
2019-03-01T11:06:04.718Z,59.33
2019-03-01T11:08:36.190Z,59.23
2019-03-01T11:11:07.643Z,58.78
2019-03-01T11:13:41.688Z,57.99
2019-03-01T11:16:13.032Z,57.52
2019-03-01T11:18:44.189Z,57.34
2019-03-01T11:21:15.274Z,56.71
2019-03-01T11:23:46.786Z,56.53
2019-03-01T11:26:18.375Z,56.08
2019-03-01T11:28:50.397Z,54.18
2019-03-01T11:31:22.442Z,54.19
2019-03-01T11:33:53.883Z,55.46
2019-03-01T11:36:25.565Z,56.74
2019-03-01T11:38:56.927Z,56.90
2019-03-01T11:41:28.366Z,57.03
2019-03-01T11:44:01.519Z,56.65
2019-03-01T11:46:32.756Z,56.94
2019-03-01T11:49:04.050Z,56.56
2019-03-01T11:51:36.809Z,56.63
2019-03-01T11:54:08.223Z,56.94
2019-03-01T11:56:41.865Z,56.85
2019-03-01T11:59:13.268Z,56.96
2019-03-01T12:01:44.840Z,57.57
2019-03-01T12:04:16.091Z,56.74
2019-03-01T12:06:47.575Z,57.27
2019-03-01T12:09:19.964Z,56.92
2019-03-01T12:11:51.312Z,56.49
2019-03-01T12:14:22.830Z,56.26
2019-03-01T12:16:56.532Z,56.02
2019-03-01T12:19:31.134Z,56.04
2019-03-01T12:22:02.423Z,55.70
2019-03-01T12:24:33.907Z,55.40
2019-03-01T12:27:05.226Z,55.09
2019-03-01T12:29:37.055Z,55.76
2019-03-01T12:32:08.462Z,55.84
2019-03-01T12:34:42.784Z,55.39
2019-03-01T12:37:14.366Z,55.58
2019-03-01T12:39:45.546Z,55.81
2019-03-01T12:42:16.774Z,55.49
2019-03-01T12:44:48.632Z,56.26
2019-03-01T12:47:19.766Z,56.13
2019-03-01T12:49:50.908Z,56.22
2019-03-01T12:52:22.105Z,56.31
2019-03-01T12:54:54.725Z,56.61
2019-03-01T12:57:26.032Z,56.87
2019-03-01T12:59:57.197Z,56.90
2019-03-01T13:02:30.140Z,56.59
2019-03-01T13:05:01.757Z,56.68
2019-03-01T13:07:33.170Z,56.95
2019-03-01T13:10:07.051Z,57.26
2019-03-01T13:12:38.478Z,57.15
2019-03-01T13:15:13.861Z,57.38
2019-03-01T13:17:44.174Z,57.52
2019-03-01T13:20:18.899Z,58.27
2019-03-01T13:22:49.983Z,57.67
2019-03-01T13:25:21.101Z,58.04
2019-03-01T13:27:53.731Z,58.46
2019-03-01T13:30:28.714Z,58.49
2019-03-01T13:33:02.586Z,59.21
2019-03-01T13:35:32.591Z,58.84
2019-03-01T13:38:04.065Z,58.52
2019-03-01T13:40:35.358Z,58.85
2019-03-01T13:43:06.359Z,58.76
2019-03-01T13:45:37.473Z,59.63
2019-03-01T13:48:08.546Z,59.94
2019-03-01T13:50:41.544Z,59.42
2019-03-01T13:53:13.028Z,59.24
2019-03-01T13:55:44.469Z,59.19
2019-03-01T13:58:15.929Z,58.62
2019-03-01T14:00:48.811Z,58.66
2019-03-01T14:03:20.777Z,58.45
2019-03-01T14:05:54.869Z,58.43
2019-03-01T14:08:26.745Z,58.59
2019-03-01T14:10:58.335Z,58.52
2019-03-01T14:13:33.511Z,58.00
2019-03-01T14:16:04.969Z,58.17
2019-03-01T14:18:36.776Z,58.31
2019-03-01T14:21:09.717Z,58.86
2019-03-01T14:23:41.066Z,58.29
2019-03-01T14:26:15.132Z,58.47
2019-03-01T14:28:45.754Z,58.40
2019-03-01T14:31:17.255Z,59.45
2019-03-01T14:33:48.664Z,59.63
2019-03-01T14:36:20.169Z,60.17
2019-03-01T14:38:51.532Z,60.74
2019-03-01T14:41:22.936Z,61.34
2019-03-01T14:43:58.787Z,62.20
2019-03-01T14:46:27.627Z,61.92
2019-03-01T14:48:59.116Z,61.66
2019-03-01T14:51:30.428Z,61.01
2019-03-01T14:54:01.942Z,61.32
2019-03-01T14:57:43.125Z,63.21
2019-03-01T15:00:20.716Z,62.26
2019-03-01T15:03:05.477Z,61.60
2019-03-01T15:05:38.685Z,62.34
2019-03-01T15:08:10.946Z,61.29
2019-03-01T15:10:42.376Z,61.14
2019-03-01T15:13:13.834Z,60.94
2019-03-01T15:15:45.162Z,60.84
2019-03-01T15:18:16.583Z,60.92
2019-03-01T15:20:48.231Z,60.71
2019-03-01T15:23:20.741Z,60.80
2019-03-01T15:25:53.126Z,61.39
2019-03-01T15:28:24.592Z,61.27
2019-03-01T15:30:57.253Z,61.61
2019-03-01T15:33:28.968Z,61.85
2019-03-01T15:36:00.747Z,61.92
2019-03-01T15:38:32.278Z,61.67
2019-03-01T15:41:06.353Z,61.67
2019-03-01T15:43:42.787Z,61.74
2019-03-01T15:46:15.257Z,61.47
2019-03-01T15:48:47.066Z,61.58
2019-03-01T15:51:21.097Z,61.88
2019-03-01T15:53:52.591Z,61.89
2019-03-01T15:56:24.020Z,61.82
2019-03-01T15:58:55.511Z,61.78
2019-03-01T16:01:26.910Z,62.15
2019-03-01T16:03:58.446Z,61.98
2019-03-01T16:06:29.905Z,62.22
2019-03-01T16:09:01.343Z,61.98
2019-03-01T16:11:34.219Z,62.00
2019-03-01T16:14:05.553Z,62.23
2019-03-01T16:16:36.859Z,62.36
2019-03-01T16:19:11.080Z,62.82
2019-03-01T16:21:43.027Z,63.27
2019-03-01T16:24:15.234Z,63.51
2019-03-01T16:26:46.579Z,63.54
2019-03-01T16:29:18.141Z,63.65
2019-03-01T16:31:49.501Z,63.95
2019-03-01T16:34:20.902Z,64.14
2019-03-01T16:36:53.502Z,64.72
2019-03-01T16:39:24.931Z,64.91
2019-03-01T16:41:56.563Z,65.32
2019-03-01T16:44:28.081Z,65.67
2019-03-01T16:46:59.425Z,65.99
2019-03-01T16:49:30.823Z,65.88
2019-03-01T16:52:02.230Z,65.54
2019-03-01T16:54:33.590Z,65.42
2019-03-01T16:57:04.924Z,65.30
2019-03-01T16:59:36.343Z,64.87
2019-03-01T17:02:07.747Z,64.70
2019-03-01T17:04:39.218Z,64.69
2019-03-01T17:07:10.852Z,64.08
2019-03-01T17:09:43.287Z,64.05
2019-03-01T17:12:16.671Z,63.63
2019-03-01T17:14:47.763Z,63.35
2019-03-01T17:17:19.021Z,62.73
2019-03-01T17:19:50.404Z,62.92
2019-03-01T17:22:23.190Z,62.63
2019-03-01T17:24:54.904Z,62.71
2019-03-01T17:27:26.239Z,62.44
2019-03-01T17:29:57.614Z,62.41
2019-03-01T17:32:29.032Z,62.27
2019-03-01T17:35:01.005Z,62.54
2019-03-01T17:37:33.364Z,62.18
2019-03-01T17:40:06.681Z,62.46
2019-03-01T17:42:38.004Z,61.98
2019-03-01T17:45:12.084Z,62.06
2019-03-01T17:47:45.451Z,62.07
2019-03-01T17:50:17.735Z,62.37
2019-03-01T17:52:50.213Z,62.59
2019-03-01T17:55:24.463Z,62.33
2019-03-01T17:57:55.837Z,62.53
2019-03-01T18:00:39.535Z,62.25
2019-03-01T18:03:10.929Z,62.24
2019-03-01T18:05:42.295Z,62.22
2019-03-01T18:08:14.057Z,62.08
2019-03-01T18:10:45.533Z,62.27
2019-03-01T18:13:17.881Z,62.20
2019-03-01T18:15:49.698Z,62.28
2019-03-01T18:18:21.169Z,61.88
2019-03-01T18:20:52.693Z,61.88
2019-03-01T18:23:23.973Z,62.00
2019-03-01T18:25:55.371Z,61.49
2019-03-01T18:28:28.289Z,61.50
2019-03-01T18:31:01.075Z,61.18
2019-03-01T18:33:32.542Z,60.95
2019-03-01T18:36:04.232Z,60.82
2019-03-01T18:38:35.644Z,59.97
2019-03-01T18:41:07.068Z,59.89
2019-03-01T18:43:38.469Z,59.72
2019-03-01T18:46:09.771Z,59.70
2019-03-01T18:48:43.931Z,59.34
2019-03-01T18:51:14.290Z,59.17
2019-03-01T18:53:45.663Z,59.07
2019-03-01T18:56:16.800Z,58.91
2019-03-01T18:58:48.967Z,58.64
2019-03-01T19:01:22.114Z,59.29
2019-03-01T19:03:53.870Z,59.06
2019-03-01T19:06:25.013Z,59.06
2019-03-01T19:08:56.167Z,59.53
2019-03-01T19:11:27.341Z,59.78
2019-03-01T19:14:01.836Z,59.60
2019-03-01T19:16:31.798Z,60.14
2019-03-01T19:19:02.805Z,60.28
2019-03-01T19:21:34.133Z,59.89
2019-03-01T19:24:08.066Z,59.82
2019-03-01T19:26:37.862Z,59.74
2019-03-01T19:29:09.384Z,59.96
2019-03-01T19:31:42.254Z,60.16
2019-03-01T19:34:16.963Z,60.18
2019-03-01T19:36:46.638Z,60.26
2019-03-01T19:39:19.690Z,60.46
2019-03-01T19:41:51.051Z,60.17
2019-03-01T19:44:25.723Z,59.70
2019-03-01T19:46:56.580Z,59.78
2019-03-01T19:49:27.623Z,59.87
2019-03-01T19:51:58.871Z,59.51
2019-03-01T19:54:32.424Z,59.37
2019-03-01T19:57:02.691Z,59.35
2019-03-01T19:59:33.633Z,59.36
2019-03-01T20:02:04.826Z,59.00
2019-03-01T20:04:35.931Z,59.09
2019-03-01T20:07:07.025Z,59.24
2019-03-01T20:09:39.771Z,58.97
2019-03-01T20:12:11.072Z,59.11
2019-03-01T20:14:42.226Z,58.86
2019-03-01T20:17:13.385Z,58.59
2019-03-01T20:19:44.328Z,58.44
2019-03-01T20:22:15.439Z,58.73
2019-03-01T20:24:48.077Z,58.57
2019-03-01T20:27:19.207Z,58.42
2019-03-01T20:29:52.503Z,58.29
2019-03-01T20:32:23.001Z,58.19
2019-03-01T20:34:54.035Z,58.45
2019-03-01T20:37:27.848Z,58.22
2019-03-01T20:39:59.748Z,58.33
2019-03-01T20:42:32.515Z,58.07
2019-03-01T20:45:04.829Z,58.12
2019-03-01T20:47:36.562Z,57.73
2019-03-01T20:50:11.888Z,58.07
2019-03-01T20:52:42.275Z,58.04
2019-03-01T20:55:13.590Z,58.20
2019-03-01T20:57:44.657Z,58.35
2019-03-01T21:00:17.920Z,58.18
2019-03-01T21:02:50.266Z,57.56
2019-03-01T21:05:25.161Z,57.79
2019-03-01T21:07:56.309Z,57.98
2019-03-01T21:10:32.251Z,58.07
2019-03-01T21:13:03.346Z,58.21
2019-03-01T21:15:34.593Z,58.29
2019-03-01T21:18:07.298Z,58.91
2019-03-01T21:20:38.310Z,58.28
2019-03-01T21:23:11.780Z,58.48
2019-03-01T21:25:42.038Z,58.47
2019-03-01T21:28:13.211Z,58.62
2019-03-01T21:30:45.759Z,58.82
2019-03-01T21:33:16.886Z,59.06
2019-03-01T21:35:51.108Z,59.48
2019-03-01T21:38:31.222Z,59.93
2019-03-01T21:41:02.932Z,60.35
2019-03-01T21:43:36.768Z,60.32
2019-03-01T21:46:08.635Z,61.03
2019-03-01T21:48:39.880Z,61.32
2019-03-01T21:51:10.964Z,61.51
2019-03-01T21:53:42.055Z,61.34
2019-03-01T21:56:13.265Z,61.30
2019-03-01T21:58:44.448Z,61.37
2019-03-01T22:01:15.517Z,61.68
2019-03-01T22:03:46.869Z,61.60
2019-03-01T22:06:20.676Z,61.46
2019-03-01T22:08:51.968Z,61.27
2019-03-01T22:11:23.044Z,61.31
2019-03-01T22:13:54.168Z,61.52
2019-03-01T22:16:25.530Z,61.53
2019-03-01T22:18:58.663Z,61.53
2019-03-01T22:21:35.231Z,61.67
2019-03-01T22:24:06.419Z,61.96
2019-03-01T22:26:37.672Z,62.11
2019-03-01T22:29:11.818Z,62.14
2019-03-01T22:31:41.617Z,62.24
2019-03-01T22:34:14.016Z,62.08
2019-03-01T22:36:45.428Z,62.22
2019-03-01T22:39:17.528Z,62.48
2019-03-01T22:41:48.912Z,62.39
2019-03-01T22:44:20.046Z,63.20
2019-03-01T22:46:51.304Z,63.80
2019-03-01T22:49:22.604Z,64.38
2019-03-01T22:51:53.821Z,64.45
2019-03-01T22:54:25.085Z,64.50
2019-03-01T22:56:56.229Z,64.90
2019-03-01T22:59:27.392Z,64.96
2019-03-01T23:01:59.084Z,64.84
2019-03-01T23:04:30.496Z,65.02
2019-03-01T23:07:01.695Z,65.10
2019-03-01T23:09:33.087Z,65.03
2019-03-01T23:12:04.618Z,65.07
2019-03-01T23:14:37.061Z,64.93
2019-03-01T23:17:08.159Z,65.01
2019-03-01T23:19:39.479Z,65.04
2019-03-01T23:22:11.007Z,64.83
2019-03-01T23:24:43.969Z,64.88
2019-03-01T23:27:15.006Z,64.81
2019-03-01T23:29:46.145Z,64.77
2019-03-01T23:32:17.205Z,64.90
2019-03-01T23:34:50.111Z,64.94
2019-03-01T23:37:21.375Z,64.98
2019-03-01T23:39:52.881Z,65.15
2019-03-01T23:42:24.108Z,65.18
2019-03-01T23:44:56.013Z,65.17
2019-03-01T23:47:27.015Z,65.22
2019-03-01T23:49:59.366Z,65.26
2019-03-01T23:52:30.466Z,65.39
2019-03-01T23:55:01.731Z,65.26
2019-03-01T23:57:32.824Z,65.15
